createdAt,value
2023-03-23T00:00:20.299Z,100034.66
2023-03-23T00:02:50.532Z,100033.00
2023-03-23T00:05:21.141Z,100032.47
2023-03-23T00:07:53.400Z,100025.25
2023-03-23T00:10:22.852Z,100010.38
2023-03-23T00:12:51.236Z,100017.56
2023-03-23T00:15:19.816Z,100007.97
2023-03-23T00:17:48.708Z,99997.75
2023-03-23T00:20:17.126Z,99991.34
2023-03-23T00:22:45.025Z,99995.56
2023-03-23T00:25:13.529Z,99998.78
2023-03-23T00:27:41.908Z,99998.00
2023-03-23T00:30:10.860Z,99993.81
2023-03-23T00:32:38.685Z,99983.75
2023-03-23T00:35:07.996Z,99989.63
2023-03-23T00:37:37.370Z,99985.25
2023-03-23T00:40:10.921Z,99974.91
2023-03-23T00:42:41.676Z,99980.84
2023-03-23T00:45:12.943Z,99985.19
2023-03-23T00:47:47.869Z,99968.81
2023-03-23T00:50:24.245Z,99981.13
2023-03-23T00:52:59.876Z,99973.34
2023-03-23T00:55:27.375Z,99966.69
2023-03-23T00:57:55.665Z,99957.97
2023-03-23T01:00:24.399Z,99953.94
2023-03-23T01:02:55.563Z,99959.56
2023-03-23T01:05:24.540Z,99962.56
2023-03-23T01:07:52.966Z,99961.72
2023-03-23T01:10:21.511Z,99949.97
2023-03-23T01:12:49.935Z,99950.41
2023-03-23T01:15:20.729Z,99947.47
2023-03-23T01:17:50.986Z,99941.44
2023-03-23T01:20:19.205Z,99928.63
2023-03-23T01:22:48.303Z,99944.16
2023-03-23T01:25:16.699Z,99939.47
2023-03-23T01:27:44.335Z,99936.94
2023-03-23T01:30:15.772Z,99939.69
2023-03-23T01:32:46.063Z,99935.19
2023-03-23T01:35:17.319Z,99935.25
2023-03-23T01:37:48.600Z,99927.47
2023-03-23T01:40:18.885Z,99924.38
2023-03-23T01:42:49.344Z,99929.56
2023-03-23T01:45:35.876Z,99933.69
2023-03-23T01:48:38.187Z,99929.13
2023-03-23T01:51:16.992Z,99925.78
2023-03-23T01:54:05.159Z,99926.28
2023-03-23T01:56:51.518Z,99922.06
2023-03-23T01:59:28.128Z,99919.13
2023-03-23T02:01:58.630Z,99912.78
2023-03-23T02:04:32.864Z,99919.94
2023-03-23T02:07:04.456Z,99920.41
2023-03-23T02:09:34.885Z,99915.88
2023-03-23T02:12:09.648Z,99914.28
2023-03-23T02:14:39.935Z,99897.44
2023-03-23T02:17:49.304Z,99903.28
2023-03-23T02:21:47.425Z,99898.88
2023-03-23T02:24:59.729Z,99901.09
2023-03-23T02:28:03.267Z,99901.88
2023-03-23T02:31:26.835Z,99901.03
2023-03-23T02:34:06.183Z,99898.63
2023-03-23T02:37:07.465Z,99891.59
2023-03-23T02:39:54.629Z,99902.53
2023-03-23T02:42:33.791Z,99904.97
2023-03-23T02:45:11.518Z,99908.78
2023-03-23T02:47:45.018Z,99910.63
2023-03-23T02:50:22.788Z,99905.09
2023-03-23T02:52:59.732Z,99890.97
2023-03-23T02:55:33.320Z,99894.41
2023-03-23T02:58:03.704Z,99894.88
2023-03-23T03:00:33.851Z,99885.09
2023-03-23T03:03:17.628Z,99894.59
2023-03-23T03:06:30.852Z,99890.41
2023-03-23T03:09:24.592Z,99892.03
2023-03-23T03:12:22.266Z,99888.81
2023-03-23T03:15:38.898Z,99880.50
2023-03-23T03:18:28.737Z,99879.13
2023-03-23T03:21:14.154Z,99883.75
2023-03-23T03:23:50.586Z,99886.78
2023-03-23T03:26:22.853Z,99888.63
2023-03-23T03:28:51.541Z,99882.19
2023-03-23T03:31:30.239Z,99879.06
2023-03-23T03:34:02.433Z,99875.50
2023-03-23T03:36:37.382Z,99880.69
2023-03-23T03:39:11.635Z,99890.88
2023-03-23T03:41:43.129Z,99879.91
2023-03-23T03:44:13.712Z,99875.06
2023-03-23T03:46:44.176Z,99880.28
2023-03-23T03:49:14.839Z,99871.28
2023-03-23T03:51:45.816Z,99867.22
2023-03-23T03:54:17.049Z,99858.06
2023-03-23T03:56:49.065Z,99862.34
2023-03-23T03:59:21.804Z,99869.72
2023-03-23T04:01:55.181Z,99871.34
2023-03-23T04:04:25.443Z,99869.28
2023-03-23T04:06:55.634Z,99864.16
2023-03-23T04:09:28.216Z,99870.56
2023-03-23T04:11:58.581Z,99861.41
2023-03-23T04:14:28.660Z,99865.28
2023-03-23T04:17:00.128Z,99868.50
2023-03-23T04:19:33.901Z,99855.19
2023-03-23T04:22:06.717Z,99858.66
2023-03-23T04:24:57.097Z,99861.28
2023-03-23T04:27:29.306Z,99868.59
2023-03-23T04:29:59.966Z,99860.28
2023-03-23T04:32:31.766Z,99843.75
2023-03-23T04:35:12.805Z,99844.22
2023-03-23T04:37:45.181Z,99847.91
2023-03-23T04:40:17.858Z,99852.31
2023-03-23T04:42:49.904Z,99841.31
2023-03-23T04:45:23.177Z,99862.56
2023-03-23T04:47:58.592Z,99860.22
2023-03-23T04:50:31.995Z,99869.91
2023-03-23T04:53:07.362Z,99879.53
2023-03-23T04:55:38.560Z,99880.44
2023-03-23T04:58:09.897Z,99874.59
2023-03-23T05:00:38.181Z,99886.06
2023-03-23T05:03:08.514Z,99884.56
2023-03-23T05:05:38.525Z,99870.28
2023-03-23T05:08:07.341Z,99881.91
2023-03-23T05:10:36.042Z,99882.81
2023-03-23T05:13:04.876Z,99882.34
2023-03-23T05:15:33.663Z,99877.81
2023-03-23T05:18:02.656Z,99881.72
2023-03-23T05:20:31.794Z,99876.66
2023-03-23T05:23:00.658Z,99883.94
2023-03-23T05:25:29.691Z,99884.78
2023-03-23T05:28:00.289Z,99887.53
2023-03-23T05:30:31.078Z,99883.00
2023-03-23T05:32:59.229Z,99883.22
2023-03-23T05:35:28.384Z,99891.38
2023-03-23T05:37:58.134Z,99886.06
2023-03-23T05:40:32.400Z,99897.31
2023-03-23T05:43:02.678Z,99896.84
2023-03-23T05:45:32.974Z,99897.19
2023-03-23T05:48:03.270Z,99899.13
2023-03-23T05:50:34.178Z,99892.00
2023-03-23T05:53:05.371Z,99896.59
2023-03-23T05:55:35.744Z,99909.00
2023-03-23T05:58:05.928Z,99908.53
2023-03-23T06:00:36.318Z,99909.81
2023-03-23T06:03:06.915Z,99908.31
2023-03-23T06:05:37.855Z,99914.50
2023-03-23T06:08:08.519Z,99913.50
2023-03-23T06:10:39.022Z,99911.91
2023-03-23T06:13:09.193Z,99914.78
2023-03-23T06:15:39.489Z,99919.63
2023-03-23T06:18:09.831Z,99919.75
2023-03-23T06:20:40.453Z,99925.25
2023-03-23T06:23:14.627Z,99920.97
2023-03-23T06:25:45.874Z,99924.94
2023-03-23T06:28:18.555Z,99920.09
2023-03-23T06:30:48.951Z,99930.38
2023-03-23T06:33:19.886Z,99932.28
2023-03-23T06:35:50.134Z,99933.25
2023-03-23T06:38:20.255Z,99936.16
2023-03-23T06:40:58.053Z,99938.47
2023-03-23T06:43:36.498Z,99935.31
2023-03-23T06:46:08.391Z,99941.09
2023-03-23T06:48:39.497Z,99944.78
2023-03-23T06:51:09.632Z,99951.59
2023-03-23T06:53:39.790Z,99946.59
2023-03-23T06:56:10.514Z,99947.41
2023-03-23T06:58:43.010Z,99955.31
2023-03-23T07:01:13.970Z,99948.59
2023-03-23T07:03:44.999Z,99946.69
2023-03-23T07:06:15.122Z,99952.78
2023-03-23T07:08:45.305Z,99949.75
2023-03-23T07:11:14.093Z,99946.38
2023-03-23T07:13:42.251Z,99953.75
2023-03-23T07:16:12.018Z,99945.22
2023-03-23T07:18:42.233Z,99951.66
2023-03-23T07:21:11.298Z,99954.06
2023-03-23T07:23:38.995Z,99955.22
2023-03-23T07:26:08.742Z,99946.13
2023-03-23T07:28:38.902Z,99938.25
2023-03-23T07:31:09.990Z,99939.88
2023-03-23T07:33:41.031Z,99934.25
2023-03-23T07:36:11.836Z,99936.50
2023-03-23T07:38:42.385Z,99946.50
2023-03-23T07:41:12.839Z,99947.56
2023-03-23T07:43:43.147Z,99946.13
2023-03-23T07:46:14.893Z,99958.00
2023-03-23T07:48:45.047Z,99953.19
2023-03-23T07:51:17.413Z,99945.59
2023-03-23T07:53:47.975Z,99930.44
2023-03-23T07:56:20.671Z,99924.19
2023-03-23T07:58:50.867Z,99914.97
2023-03-23T08:01:21.146Z,99892.44
2023-03-23T08:03:53.256Z,99890.25
2023-03-23T08:06:24.431Z,99896.91
2023-03-23T08:08:56.497Z,99891.97
2023-03-23T08:11:27.982Z,99904.22
2023-03-23T08:13:58.343Z,99912.81
2023-03-23T08:16:28.767Z,99940.75
2023-03-23T08:18:59.852Z,99935.66
2023-03-23T08:21:38.811Z,99930.97
2023-03-23T08:24:09.009Z,99935.25
2023-03-23T08:26:39.277Z,99932.16
2023-03-23T08:29:11.922Z,99938.63
2023-03-23T08:31:40.630Z,99942.66
2023-03-23T08:34:11.787Z,99942.53
2023-03-23T08:36:40.912Z,99957.69
2023-03-23T08:39:11.438Z,99961.06
2023-03-23T08:41:42.303Z,99960.50
2023-03-23T08:44:13.059Z,99964.78
2023-03-23T08:46:43.110Z,99957.69
2023-03-23T08:49:13.079Z,99956.78
2023-03-23T08:51:43.258Z,99954.00
2023-03-23T08:54:13.437Z,99934.53
2023-03-23T08:56:43.771Z,99925.16
2023-03-23T08:59:13.933Z,99933.22
2023-03-23T09:01:44.012Z,99951.28
2023-03-23T09:04:17.923Z,99947.69
2023-03-23T09:06:46.868Z,99950.09
2023-03-23T09:09:16.879Z,99955.47
2023-03-23T09:11:46.465Z,99953.31
2023-03-23T09:14:16.894Z,99952.34
2023-03-23T09:16:44.576Z,99959.84
2023-03-23T09:19:13.716Z,99963.72
2023-03-23T09:21:41.345Z,99959.78
2023-03-23T09:24:10.414Z,99950.81
2023-03-23T09:26:38.598Z,99941.75
2023-03-23T09:29:06.772Z,99947.19
2023-03-23T09:31:37.890Z,99941.00
2023-03-23T09:34:07.440Z,99947.69
2023-03-23T09:36:34.885Z,99946.56
2023-03-23T09:39:08.769Z,99950.91
2023-03-23T09:42:48.472Z,99950.91
2023-03-23T09:46:12.219Z,99951.81
2023-03-23T09:48:59.143Z,99960.19
2023-03-23T09:51:52.605Z,99961.69
2023-03-23T09:54:51.767Z,99963.00
2023-03-23T09:57:34.337Z,99953.75
2023-03-23T10:00:55.164Z,99969.78
2023-03-23T10:03:39.945Z,99967.00
2023-03-23T10:06:19.008Z,99967.88
2023-03-23T10:08:57.543Z,99964.34
2023-03-23T10:11:51.291Z,99962.94
2023-03-23T10:15:12.180Z,99969.09
2023-03-23T10:18:44.751Z,99962.44
2023-03-23T10:21:25.322Z,99954.09
2023-03-23T10:24:10.293Z,99960.34
2023-03-23T10:27:41.683Z,99952.97
2023-03-23T10:30:13.057Z,99957.25
2023-03-23T10:32:59.450Z,99953.09
2023-03-23T10:35:52.593Z,99954.88
2023-03-23T10:38:44.693Z,99943.69
2023-03-23T10:41:20.877Z,99956.09
2023-03-23T10:43:51.691Z,99954.03
2023-03-23T10:47:06.622Z,99953.97
2023-03-23T10:49:51.806Z,99960.88
2023-03-23T10:52:37.136Z,99949.56
2023-03-23T10:55:14.894Z,99949.25
2023-03-23T10:58:02.343Z,99948.44
2023-03-23T11:00:41.618Z,99948.44
2023-03-23T11:03:18.497Z,99949.34
2023-03-23T11:06:07.948Z,99951.94
2023-03-23T11:09:17.876Z,99947.97
2023-03-23T11:12:02.155Z,99952.75
2023-03-23T11:14:40.208Z,99963.69
2023-03-23T11:17:28.709Z,99969.31
2023-03-23T11:19:59.041Z,99957.22
2023-03-23T11:22:34.659Z,99963.72
2023-03-23T11:25:12.962Z,99964.25
2023-03-23T11:27:44.467Z,99956.19
2023-03-23T11:30:31.236Z,99967.94
2023-03-23T11:33:04.265Z,99964.41
2023-03-23T11:35:35.298Z,99960.34
2023-03-23T11:38:07.399Z,99962.13
2023-03-23T11:40:54.185Z,99964.16
2023-03-23T11:43:29.063Z,99967.09
2023-03-23T11:46:36.102Z,99961.53
2023-03-23T11:49:49.120Z,99973.66
2023-03-23T11:53:21.293Z,99976.00
2023-03-23T11:56:07.800Z,99976.25
2023-03-23T11:58:38.552Z,99966.34
2023-03-23T12:01:43.134Z,99979.16
2023-03-23T12:04:40.856Z,99974.13
2023-03-23T12:08:14.965Z,99979.56
2023-03-23T12:11:20.544Z,99978.31
2023-03-23T12:14:21.440Z,99987.81
2023-03-23T12:17:36.558Z,99983.75
2023-03-23T12:20:50.222Z,99977.38
2023-03-23T12:24:36.077Z,99977.31
2023-03-23T12:28:02.662Z,99966.69
2023-03-23T12:31:02.605Z,99980.34
2023-03-23T12:34:06.572Z,99966.88
2023-03-23T12:37:12.780Z,99971.63
2023-03-23T12:40:18.484Z,99958.66
2023-03-23T12:43:34.022Z,99945.50
2023-03-23T12:47:14.431Z,99949.94
2023-03-23T12:50:42.601Z,99947.91
2023-03-23T12:53:36.559Z,99936.81
2023-03-23T12:56:34.697Z,99924.03
2023-03-23T12:59:16.089Z,99912.81
2023-03-23T13:02:00.381Z,99922.84
2023-03-23T13:04:45.926Z,99939.41
2023-03-23T13:07:38.167Z,99955.22
2023-03-23T13:10:28.440Z,99955.31
2023-03-23T13:13:01.297Z,99947.69
2023-03-23T13:15:53.804Z,99948.84
2023-03-23T13:19:12.741Z,99950.94
2023-03-23T13:21:57.769Z,99958.78
2023-03-23T13:24:39.304Z,99936.88
2023-03-23T13:27:13.167Z,99951.97
2023-03-23T13:29:48.020Z,99940.75
2023-03-23T13:32:21.159Z,99946.06
2023-03-23T13:34:53.776Z,99943.69
2023-03-23T13:37:29.038Z,99933.09
2023-03-23T13:40:32.843Z,99923.22
2023-03-23T13:43:03.049Z,99913.94
2023-03-23T13:45:34.740Z,99912.72
2023-03-23T13:48:18.492Z,99915.41
2023-03-23T13:50:58.393Z,99905.25
2023-03-23T13:53:49.491Z,99906.88
2023-03-23T13:56:42.197Z,99921.84
2023-03-23T13:59:35.762Z,99921.84
2023-03-23T14:02:43.917Z,99909.63
2023-03-23T14:05:21.430Z,99921.06
2023-03-23T14:08:01.997Z,99922.66
2023-03-23T14:10:45.539Z,99924.41
2023-03-23T14:13:58.157Z,99924.44
2023-03-23T14:16:53.161Z,99915.38
2023-03-23T14:19:31.999Z,99923.81
2023-03-23T14:22:03.655Z,99922.13
2023-03-23T14:24:41.930Z,99918.72
2023-03-23T14:27:22.453Z,99930.16
2023-03-23T14:30:09.938Z,99926.75
2023-03-23T14:32:41.631Z,99928.25
2023-03-23T14:35:36.799Z,99918.88
2023-03-23T14:38:22.353Z,99924.81
2023-03-23T14:40:52.938Z,99912.63
2023-03-23T14:43:24.842Z,99910.38
2023-03-23T14:46:03.223Z,99904.91
2023-03-23T14:48:31.835Z,99906.03
2023-03-23T14:51:06.110Z,99899.75
2023-03-23T14:53:43.372Z,99901.41
2023-03-23T14:56:23.450Z,99908.03
2023-03-23T14:58:54.024Z,99911.38
2023-03-23T15:01:35.112Z,99918.25
2023-03-23T15:04:24.310Z,99921.38
2023-03-23T15:07:06.307Z,99914.84
2023-03-23T15:09:47.029Z,99910.84
2023-03-23T15:12:32.158Z,99916.88
2023-03-23T15:15:17.045Z,99923.22
2023-03-23T15:17:48.478Z,99926.31
2023-03-23T15:20:44.414Z,99925.44
2023-03-23T15:23:29.142Z,99934.19
2023-03-23T15:26:08.814Z,99930.16
2023-03-23T15:28:42.231Z,99909.59
2023-03-23T15:31:09.659Z,99910.94
2023-03-23T15:33:42.183Z,99912.19
2023-03-23T15:36:19.461Z,99913.81
2023-03-23T15:38:49.106Z,99920.47
2023-03-23T15:41:29.504Z,99907.16
2023-03-23T15:44:13.200Z,99900.66
2023-03-23T15:47:13.455Z,99909.34
2023-03-23T15:49:45.625Z,99916.88
2023-03-23T15:52:16.195Z,99910.84
2023-03-23T15:54:50.472Z,99925.06
2023-03-23T15:57:20.651Z,99921.59
2023-03-23T15:59:50.804Z,99917.34
2023-03-23T16:02:26.237Z,99932.22
2023-03-23T16:04:56.545Z,99929.94
2023-03-23T16:07:26.680Z,99933.50
2023-03-23T16:09:56.886Z,99951.59
2023-03-23T16:12:26.998Z,99955.78
2023-03-23T16:14:57.133Z,99955.50
2023-03-23T16:17:27.288Z,99959.09
2023-03-23T16:19:55.964Z,99963.19
2023-03-23T16:22:24.711Z,99960.19
2023-03-23T16:24:53.070Z,99967.56
2023-03-23T16:27:22.483Z,99964.50
2023-03-23T16:30:03.089Z,99965.31
2023-03-23T16:35:02.189Z,99949.03
2023-03-23T16:37:34.716Z,99955.75
2023-03-23T16:40:08.571Z,99955.75
2023-03-23T16:42:38.805Z,99955.78
2023-03-23T16:45:09.835Z,99972.53
2023-03-23T16:47:41.838Z,99980.97
2023-03-23T16:50:19.093Z,99985.19
2023-03-23T16:52:49.329Z,99976.06
2023-03-23T16:55:19.610Z,99990.78
2023-03-23T16:57:49.724Z,99997.38
2023-03-23T17:00:22.338Z,100001.06
2023-03-23T17:02:57.062Z,99998.63
2023-03-23T17:05:29.808Z,100002.72
2023-03-23T17:07:59.902Z,100003.50
2023-03-23T17:10:33.733Z,100003.28
2023-03-23T17:13:03.895Z,100003.50
2023-03-23T17:15:38.867Z,100015.00
2023-03-23T17:18:09.849Z,100011.16
2023-03-23T17:20:40.216Z,100007.38
2023-03-23T17:23:10.631Z,100014.41
2023-03-23T17:25:41.080Z,100026.19
2023-03-23T17:28:11.464Z,100019.28
2023-03-23T17:30:45.060Z,100018.28
2023-03-23T17:33:15.528Z,100013.72
2023-03-23T17:35:52.017Z,100017.22
2023-03-23T17:38:22.367Z,100028.00
2023-03-23T17:40:59.162Z,100040.56
2023-03-23T17:43:29.273Z,100056.31
2023-03-23T17:45:59.465Z,100064.31
2023-03-23T17:48:29.569Z,100068.78
2023-03-23T17:51:02.536Z,100076.13
2023-03-23T17:53:35.848Z,100076.56
2023-03-23T17:56:07.615Z,100070.69
2023-03-23T17:58:37.630Z,100069.44
2023-03-23T18:01:05.686Z,100066.91
2023-03-23T18:03:36.065Z,100069.59
2023-03-23T18:06:09.224Z,100065.78
2023-03-23T18:08:38.997Z,100058.59
2023-03-23T18:11:09.424Z,100048.19
2023-03-23T18:13:39.425Z,100050.97
2023-03-23T18:16:08.799Z,100049.94
2023-03-23T18:18:38.969Z,100052.63
2023-03-23T18:21:11.054Z,100054.09
2023-03-23T18:23:49.041Z,100055.06
2023-03-23T18:26:23.466Z,100071.13
2023-03-23T18:28:54.075Z,100085.13
2023-03-23T18:31:25.325Z,100083.94
2023-03-23T18:33:56.100Z,100093.91
2023-03-23T18:36:28.585Z,100100.59
2023-03-23T18:38:59.174Z,100112.75
2023-03-23T18:41:29.660Z,100113.78
2023-03-23T18:43:59.869Z,100107.75
2023-03-23T18:46:30.098Z,100119.19
2023-03-23T18:49:00.362Z,100119.44
2023-03-23T18:51:31.077Z,100114.00
2023-03-23T18:54:01.213Z,100111.34
2023-03-23T18:56:31.386Z,100110.84
2023-03-23T18:59:01.588Z,100112.22
2023-03-23T19:01:32.306Z,100110.44
2023-03-23T19:04:02.674Z,100110.00
2023-03-23T19:06:37.383Z,100106.41
2023-03-23T19:09:07.478Z,100107.41
2023-03-23T19:11:37.665Z,100106.13
2023-03-23T19:14:07.954Z,100113.03
2023-03-23T19:16:38.166Z,100120.41
2023-03-23T19:19:09.100Z,100119.13
2023-03-23T19:21:40.890Z,100113.44
2023-03-23T19:24:12.082Z,100115.41
2023-03-23T19:26:46.736Z,100113.78
2023-03-23T19:31:55.509Z,100117.31
2023-03-23T19:34:28.415Z,100119.28
2023-03-23T19:37:05.401Z,100122.72
2023-03-23T19:39:35.443Z,100128.13
2023-03-23T19:42:08.696Z,100121.69
2023-03-23T19:44:39.278Z,100135.94
2023-03-23T19:47:10.711Z,100125.50
2023-03-23T19:49:41.390Z,100126.19
2023-03-23T19:52:13.529Z,100123.41
2023-03-23T19:54:45.348Z,100119.94
2023-03-23T19:57:16.780Z,100116.03
2023-03-23T19:59:48.293Z,100119.41
2023-03-23T20:02:18.606Z,100113.75
2023-03-23T20:04:48.815Z,100117.56
2023-03-23T20:07:20.585Z,100118.75
2023-03-23T20:09:51.598Z,100111.53
2023-03-23T20:12:21.768Z,100112.34
2023-03-23T20:14:50.897Z,100115.97
2023-03-23T20:17:18.747Z,100104.16
2023-03-23T20:19:47.111Z,100104.88
2023-03-23T20:22:15.661Z,100102.75
2023-03-23T20:24:47.314Z,100100.44
2023-03-23T20:27:18.228Z,100105.06
2023-03-23T20:29:48.439Z,100110.13
2023-03-23T20:32:18.677Z,100104.47
2023-03-23T20:34:49.666Z,100110.34
2023-03-23T20:37:20.955Z,100110.34
2023-03-23T20:39:49.002Z,100106.41
2023-03-23T20:42:17.272Z,100101.63
2023-03-23T20:44:45.992Z,100098.28
2023-03-23T20:47:14.032Z,100102.34
2023-03-23T20:49:42.404Z,100102.19
2023-03-23T20:52:26.401Z,100096.06
2023-03-23T20:54:57.018Z,100094.97
2023-03-23T20:57:29.036Z,100099.38
2023-03-23T20:59:59.170Z,100102.75
2023-03-23T21:02:30.242Z,100101.41
2023-03-23T21:05:04.953Z,100105.34
2023-03-23T21:07:36.309Z,100113.25
2023-03-23T21:10:07.483Z,100109.72
2023-03-23T21:12:37.567Z,100114.69
2023-03-23T21:15:08.502Z,100108.19
2023-03-23T21:17:38.593Z,100095.31
2023-03-23T21:20:11.199Z,100092.09
2023-03-23T21:22:41.477Z,100085.84
2023-03-23T21:25:11.788Z,100076.25
2023-03-23T21:27:41.992Z,100078.41
2023-03-23T21:30:12.373Z,100068.34
2023-03-23T21:32:42.500Z,100068.41
2023-03-23T21:35:13.489Z,100059.59
2023-03-23T21:37:43.600Z,100061.97
2023-03-23T21:40:17.813Z,100056.00
2023-03-23T21:42:49.473Z,100060.66
2023-03-23T21:45:21.239Z,100064.13
2023-03-23T21:47:57.149Z,100060.75
2023-03-23T21:50:27.308Z,100054.28
2023-03-23T21:52:57.436Z,100053.03
2023-03-23T21:55:29.762Z,100056.50
2023-03-23T21:57:59.446Z,100062.84
2023-03-23T22:00:28.588Z,100061.56
2023-03-23T22:02:56.141Z,100054.41
2023-03-23T22:05:24.782Z,100062.72
2023-03-23T22:07:54.370Z,100058.84
2023-03-23T22:10:24.441Z,100052.19
2023-03-23T22:12:55.404Z,100048.28
2023-03-23T22:15:28.091Z,100045.19
2023-03-23T22:17:58.376Z,100044.53
2023-03-23T22:20:29.641Z,100046.69
2023-03-23T22:22:59.880Z,100040.97
2023-03-23T22:25:30.065Z,100044.41
2023-03-23T22:28:01.321Z,100045.84
2023-03-23T22:30:34.546Z,100032.19
2023-03-23T22:33:04.951Z,100028.47
2023-03-23T22:35:35.466Z,100025.03
2023-03-23T22:38:06.034Z,100014.97
2023-03-23T22:40:36.578Z,100028.13
2023-03-23T22:43:06.784Z,100023.72
2023-03-23T22:45:37.202Z,100022.75
2023-03-23T22:48:08.446Z,100022.13
2023-03-23T22:50:38.709Z,100015.13
2023-03-23T22:53:08.896Z,100023.91
2023-03-23T22:55:42.317Z,100014.94
2023-03-23T22:58:14.293Z,100016.56
2023-03-23T23:00:50.268Z,100020.59
2023-03-23T23:03:20.726Z,100014.09
2023-03-23T23:05:54.687Z,100016.38
2023-03-23T23:08:29.219Z,100004.38
2023-03-23T23:11:03.166Z,99999.00
2023-03-23T23:13:33.731Z,99999.16
2023-03-23T23:16:07.395Z,99996.91
2023-03-23T23:18:40.878Z,99997.22
2023-03-23T23:21:20.771Z,100001.44
2023-03-23T23:23:51.881Z,99999.03
2023-03-23T23:26:22.339Z,99991.06
2023-03-23T23:28:52.893Z,99993.16
2023-03-23T23:31:32.669Z,99983.44
2023-03-23T23:34:05.691Z,99984.56
2023-03-23T23:36:37.141Z,99984.91
2023-03-23T23:39:07.821Z,99980.97
2023-03-23T23:41:38.445Z,99977.88
2023-03-23T23:44:08.751Z,99972.19
2023-03-23T23:46:39.668Z,99965.03
2023-03-23T23:49:07.553Z,99966.16
2023-03-23T23:51:37.705Z,99956.38
2023-03-23T23:54:07.306Z,99959.75
2023-03-23T23:56:36.318Z,99957.31
2023-03-23T23:59:04.129Z,99951.25
